createdAt,value
2022-07-30T00:00:11.682Z,61.30
2022-07-30T00:01:17.055Z,62.30
2022-07-30T00:02:31.357Z,61.70
2022-07-30T00:03:36.889Z,62.20
2022-07-30T00:04:41.249Z,62.00
2022-07-30T00:05:46.800Z,62.20
2022-07-30T00:06:52.195Z,62.20
2022-07-30T00:07:56.817Z,62.60
2022-07-30T00:09:00.751Z,63.00
2022-07-30T00:10:04.841Z,64.00
2022-07-30T00:11:07.576Z,62.70
2022-07-30T00:12:13.399Z,62.60
2022-07-30T00:13:18.489Z,62.80
2022-07-30T00:14:24.714Z,62.70
2022-07-30T00:15:28.325Z,62.90
2022-07-30T00:16:31.960Z,63.90
2022-07-30T00:17:39.511Z,63.40
2022-07-30T00:18:45.346Z,64.00
2022-07-30T00:19:51.444Z,64.70
2022-07-30T00:20:57.940Z,64.90
2022-07-30T00:22:05.898Z,65.60
2022-07-30T00:23:14.709Z,65.50
2022-07-30T00:24:24.473Z,65.80
2022-07-30T00:25:33.047Z,66.60
2022-07-30T00:26:37.652Z,67.00
2022-07-30T00:27:42.925Z,66.80
2022-07-30T00:28:47.137Z,66.70
2022-07-30T00:29:55.389Z,67.20
2022-07-30T00:31:01.536Z,67.20
2022-07-30T00:32:07.502Z,67.40
2022-07-30T00:33:14.362Z,67.30
2022-07-30T00:34:21.915Z,67.40
2022-07-30T00:35:27.700Z,67.40
2022-07-30T00:36:33.253Z,67.70
2022-07-30T00:37:37.813Z,68.50
2022-07-30T00:38:48.403Z,67.10
2022-07-30T00:39:52.368Z,67.70
2022-07-30T00:41:01.766Z,67.60
2022-07-30T00:42:05.606Z,67.30
2022-07-30T00:43:09.941Z,67.60
2022-07-30T00:44:20.508Z,67.60
2022-07-30T00:45:37.005Z,66.80
2022-07-30T00:46:41.229Z,67.50
2022-07-30T00:47:50.019Z,67.60
2022-07-30T00:49:00.080Z,67.60
2022-07-30T00:50:06.268Z,67.30
2022-07-30T00:51:11.019Z,66.70
2022-07-30T00:52:17.399Z,67.40
2022-07-30T00:53:23.616Z,67.00
2022-07-30T00:54:26.238Z,67.00
2022-07-30T00:55:38.309Z,65.90
2022-07-30T00:56:44.016Z,65.90
2022-07-30T00:57:49.283Z,65.50
2022-07-30T00:58:58.616Z,65.50
2022-07-30T01:00:03.634Z,65.70
2022-07-30T01:01:06.188Z,66.10
2022-07-30T01:02:10.601Z,65.80
2022-07-30T01:03:16.445Z,65.50
2022-07-30T01:04:36.689Z,65.60
2022-07-30T01:05:43.592Z,64.90
2022-07-30T01:06:50.564Z,65.00
2022-07-30T01:07:53.588Z,65.80
2022-07-30T01:09:02.885Z,65.60
2022-07-30T01:10:07.266Z,66.00
2022-07-30T01:11:12.474Z,68.70
2022-07-30T01:12:25.134Z,67.20
2022-07-30T01:13:29.628Z,67.50
2022-07-30T01:14:41.291Z,66.30
2022-07-30T01:15:49.252Z,66.60
2022-07-30T01:16:53.713Z,66.40
2022-07-30T01:18:04.034Z,66.60
2022-07-30T01:19:33.364Z,66.10
2022-07-30T01:20:44.622Z,66.90
2022-07-30T01:21:57.856Z,65.60
2022-07-30T01:23:11.568Z,66.90
2022-07-30T01:24:28.184Z,66.10
2022-07-30T01:25:57.048Z,66.30
2022-07-30T01:27:03.545Z,65.60
2022-07-30T01:28:14.598Z,65.90
2022-07-30T01:29:24.517Z,66.40
2022-07-30T01:30:34.931Z,65.70
2022-07-30T01:31:41.986Z,65.80
2022-07-30T01:32:49.212Z,67.40
2022-07-30T01:33:57.872Z,66.20
2022-07-30T01:35:07.232Z,65.90
2022-07-30T01:36:16.057Z,66.50
2022-07-30T01:37:21.458Z,65.30
2022-07-30T01:38:34.743Z,65.60
2022-07-30T01:39:45.254Z,66.20
2022-07-30T01:40:57.546Z,66.00
2022-07-30T01:42:07.209Z,66.30
2022-07-30T01:43:13.162Z,66.00
2022-07-30T01:44:23.912Z,66.60
2022-07-30T01:45:41.381Z,66.50
2022-07-30T01:46:53.789Z,67.80
2022-07-30T01:48:02.260Z,66.80
2022-07-30T01:49:17.709Z,66.60
2022-07-30T01:50:25.321Z,66.40
2022-07-30T01:51:33.342Z,66.80
2022-07-30T01:52:46.293Z,67.10
2022-07-30T01:53:58.586Z,66.80
2022-07-30T01:55:16.553Z,67.90
2022-07-30T01:56:26.994Z,66.70
2022-07-30T01:57:32.574Z,66.80
2022-07-30T01:58:43.510Z,66.70
2022-07-30T02:00:02.966Z,66.60
2022-07-30T02:01:23.185Z,66.80
2022-07-30T02:02:43.014Z,67.60
2022-07-30T02:03:47.593Z,67.70
2022-07-30T02:04:55.110Z,68.30
2022-07-30T02:06:07.101Z,68.00
2022-07-30T02:07:21.304Z,68.60
2022-07-30T02:08:35.487Z,68.90
2022-07-30T02:09:54.459Z,69.30
2022-07-30T02:11:08.836Z,69.70
2022-07-30T02:12:31.169Z,70.00
2022-07-30T02:13:59.699Z,70.10
2022-07-30T02:15:18.740Z,70.50
2022-07-30T02:16:37.926Z,70.70
2022-07-30T02:17:46.935Z,70.90
2022-07-30T02:19:08.281Z,72.00
2022-07-30T02:20:33.655Z,71.40
2022-07-30T02:21:50.881Z,70.70
2022-07-30T02:23:13.473Z,70.30
2022-07-30T02:26:02.081Z,70.70
2022-07-30T02:27:18.712Z,70.90
2022-07-30T02:28:29.686Z,70.80
2022-07-30T02:29:40.315Z,71.10
2022-07-30T02:33:35.745Z,71.50
2022-07-30T02:34:50.810Z,72.00
2022-07-30T02:35:57.986Z,72.10
2022-07-30T02:37:04.796Z,72.40
2022-07-30T02:38:11.513Z,73.40
2022-07-30T02:39:17.544Z,72.80
2022-07-30T02:40:23.568Z,72.70
2022-07-30T02:41:31.002Z,72.70
2022-07-30T02:42:38.066Z,73.00
2022-07-30T02:43:46.064Z,73.00
2022-07-30T02:44:58.604Z,73.00
2022-07-30T02:46:06.148Z,73.30
2022-07-30T02:47:31.141Z,73.30
2022-07-30T02:48:41.117Z,74.20
2022-07-30T02:49:48.526Z,74.20
2022-07-30T02:50:55.708Z,73.70
2022-07-30T02:52:01.278Z,73.00
2022-07-30T02:53:11.216Z,72.80
2022-07-30T02:54:19.522Z,73.10
2022-07-30T02:55:26.688Z,73.50
2022-07-30T02:56:32.020Z,73.40
2022-07-30T02:57:37.319Z,73.60
2022-07-30T02:58:50.991Z,73.80
2022-07-30T02:59:59.628Z,74.50
2022-07-30T03:01:04.538Z,74.10
2022-07-30T03:02:09.947Z,73.50
2022-07-30T03:03:16.832Z,73.30
2022-07-30T03:04:22.220Z,74.00
2022-07-30T03:05:28.004Z,73.30
2022-07-30T03:06:36.600Z,73.10
2022-07-30T03:07:42.726Z,74.40
2022-07-30T03:08:45.832Z,73.30
2022-07-30T03:09:50.954Z,73.00
2022-07-30T03:10:56.550Z,73.50
2022-07-30T03:12:04.531Z,72.90
2022-07-30T03:13:11.100Z,73.00
2022-07-30T03:14:14.778Z,73.20
2022-07-30T03:15:18.730Z,73.10
2022-07-30T03:16:25.116Z,73.10
2022-07-30T03:17:40.301Z,73.30
2022-07-30T03:18:45.896Z,73.80
2022-07-30T03:19:51.779Z,73.60
2022-07-30T03:20:58.480Z,73.30
2022-07-30T03:22:05.902Z,72.90
2022-07-30T03:23:12.378Z,72.80
2022-07-30T03:24:17.466Z,72.80
2022-07-30T03:25:29.692Z,73.00
2022-07-30T03:26:35.061Z,73.30
2022-07-30T03:27:39.936Z,73.30
2022-07-30T03:28:44.141Z,73.70
2022-07-30T03:29:54.336Z,73.90
2022-07-30T03:30:59.921Z,74.10
2022-07-30T03:32:06.383Z,74.10
2022-07-30T03:33:10.880Z,74.50
2022-07-30T03:34:20.459Z,73.90
2022-07-30T03:35:26.098Z,74.00
2022-07-30T03:36:31.918Z,74.70
2022-07-30T03:37:37.054Z,73.20
2022-07-30T03:38:43.812Z,73.20
2022-07-30T03:39:48.167Z,73.20
2022-07-30T03:40:53.926Z,72.80
2022-07-30T03:41:57.004Z,73.20
2022-07-30T03:43:02.218Z,73.70
2022-07-30T03:44:06.113Z,73.30
2022-07-30T03:45:15.028Z,73.40
2022-07-30T03:46:18.845Z,73.30
2022-07-30T03:47:27.036Z,73.40
2022-07-30T03:48:31.470Z,73.50
2022-07-30T03:49:35.216Z,73.00
2022-07-30T03:50:40.347Z,73.40
2022-07-30T03:51:44.405Z,74.20
2022-07-30T03:52:48.136Z,73.70
2022-07-30T03:53:53.093Z,74.50
2022-07-30T03:55:15.284Z,74.00
2022-07-30T03:56:24.030Z,74.20
2022-07-30T03:57:41.114Z,74.50
2022-07-30T03:58:44.507Z,75.00
2022-07-30T03:59:48.557Z,75.30
2022-07-30T04:00:54.448Z,75.80
2022-07-30T04:02:06.869Z,77.00
2022-07-30T04:03:31.986Z,76.20
2022-07-30T04:04:43.060Z,76.50
2022-07-30T04:05:48.054Z,76.50
2022-07-30T04:06:50.477Z,77.50
2022-07-30T04:07:55.772Z,76.70
2022-07-30T04:08:59.852Z,76.70
2022-07-30T04:10:03.287Z,76.80
2022-07-30T04:11:45.503Z,77.10
2022-07-30T04:12:51.966Z,76.50
2022-07-30T04:13:55.438Z,76.80
2022-07-30T04:15:01.148Z,76.80
2022-07-30T04:16:39.260Z,77.00
2022-07-30T04:17:45.388Z,77.20
2022-07-30T04:18:53.453Z,76.80
2022-07-30T04:20:02.904Z,77.30
2022-07-30T04:21:17.146Z,76.50
2022-07-30T04:22:28.605Z,77.00
2022-07-30T04:23:31.653Z,76.90
2022-07-30T04:24:57.090Z,77.30
2022-07-30T04:26:02.236Z,77.50
2022-07-30T04:27:08.563Z,77.70
2022-07-30T04:28:12.111Z,77.50
2022-07-30T04:29:19.155Z,77.70
2022-07-30T04:30:23.364Z,77.90
2022-07-30T04:31:38.165Z,78.10
2022-07-30T04:33:03.726Z,77.90
2022-07-30T04:34:22.488Z,78.80
2022-07-30T04:35:50.776Z,78.20
2022-07-30T04:36:54.197Z,78.10
2022-07-30T04:37:57.026Z,77.20
2022-07-30T04:39:01.546Z,77.10
2022-07-30T04:40:08.246Z,77.40
2022-07-30T04:41:10.652Z,77.60
2022-07-30T04:42:34.307Z,78.10
2022-07-30T04:43:41.398Z,78.50
2022-07-30T04:44:45.091Z,78.80
2022-07-30T04:46:07.035Z,78.90
2022-07-30T04:47:11.980Z,79.00
2022-07-30T04:48:28.626Z,78.90
2022-07-30T04:50:02.278Z,78.90
2022-07-30T04:51:14.240Z,78.60
2022-07-30T04:52:19.031Z,78.20
2022-07-30T04:53:23.398Z,79.00
2022-07-30T04:54:42.248Z,78.90
2022-07-30T04:55:49.171Z,78.50
2022-07-30T04:56:54.491Z,77.60
2022-07-30T04:57:58.107Z,77.00
2022-07-30T04:59:03.717Z,77.80
2022-07-30T05:00:09.199Z,78.10
2022-07-30T05:01:22.942Z,78.10
2022-07-30T05:02:30.922Z,77.40
2022-07-30T05:03:37.717Z,76.20
2022-07-30T05:04:42.135Z,75.90
2022-07-30T05:05:46.942Z,76.00
2022-07-30T05:06:51.357Z,76.80
2022-07-30T05:07:55.549Z,75.80
2022-07-30T05:09:00.169Z,76.10
2022-07-30T05:10:02.878Z,76.00
2022-07-30T05:11:07.087Z,76.50
2022-07-30T05:12:10.257Z,77.30
2022-07-30T05:13:14.486Z,76.20
2022-07-30T05:14:17.341Z,76.00
2022-07-30T05:15:20.910Z,76.70
2022-07-30T05:16:23.509Z,76.80
2022-07-30T05:17:29.661Z,77.10
2022-07-30T05:18:32.354Z,77.20
2022-07-30T05:19:36.125Z,77.80
2022-07-30T05:20:39.184Z,77.00
2022-07-30T05:21:51.727Z,76.30
2022-07-30T05:22:54.278Z,75.90
2022-07-30T05:23:59.290Z,76.80
2022-07-30T05:25:15.834Z,77.50
2022-07-30T05:26:27.782Z,76.30
2022-07-30T05:27:32.771Z,76.30
2022-07-30T05:28:36.138Z,76.30
2022-07-30T05:29:43.975Z,76.50
2022-07-30T05:30:50.146Z,75.80
2022-07-30T05:31:55.168Z,75.30
2022-07-30T05:33:11.609Z,74.00
2022-07-30T05:38:39.911Z,74.50
2022-07-30T05:40:02.187Z,74.50
2022-07-30T05:41:32.915Z,75.70
2022-07-30T05:42:49.104Z,76.10
2022-07-30T05:43:55.827Z,75.30
2022-07-30T05:45:00.326Z,76.10
2022-07-30T05:46:03.848Z,76.90
2022-07-30T05:47:06.537Z,77.60
2022-07-30T05:48:11.818Z,75.70
2022-07-30T05:49:15.920Z,76.50
2022-07-30T05:50:19.308Z,76.90
2022-07-30T05:51:22.419Z,76.20
2022-07-30T05:52:26.334Z,76.20
2022-07-30T05:53:40.357Z,75.10
2022-07-30T05:54:47.031Z,74.30
2022-07-30T05:56:07.709Z,74.90
2022-07-30T05:57:35.895Z,74.90
2022-07-30T05:58:38.627Z,74.70
2022-07-30T05:59:42.502Z,75.60
2022-07-30T06:00:47.464Z,75.90
2022-07-30T06:01:50.158Z,75.90
2022-07-30T06:02:59.535Z,76.30
2022-07-30T06:04:03.239Z,76.70
2022-07-30T06:05:23.090Z,77.00
2022-07-30T06:06:26.019Z,76.70
2022-07-30T06:07:29.410Z,77.50
2022-07-30T06:08:33.086Z,77.60
2022-07-30T06:09:37.424Z,77.70
2022-07-30T06:10:41.765Z,78.00
2022-07-30T06:11:48.367Z,78.10
2022-07-30T06:12:51.936Z,78.10
2022-07-30T06:13:55.202Z,78.30
2022-07-30T06:14:59.621Z,78.10
2022-07-30T06:16:06.305Z,78.80
2022-07-30T06:17:12.086Z,78.80
2022-07-30T06:18:41.915Z,79.80
2022-07-30T06:19:54.399Z,79.70
2022-07-30T06:21:01.104Z,79.50
2022-07-30T06:22:26.209Z,79.10
2022-07-30T06:23:30.713Z,77.90
2022-07-30T06:24:39.877Z,77.90
2022-07-30T06:25:48.422Z,77.40
2022-07-30T06:26:52.518Z,77.00
2022-07-30T06:27:55.758Z,76.40
2022-07-30T06:28:59.249Z,76.30
2022-07-30T06:30:08.322Z,77.10
2022-07-30T06:31:11.994Z,75.70
2022-07-30T06:32:14.428Z,76.10
2022-07-30T06:33:18.210Z,75.70
2022-07-30T06:34:20.673Z,75.40
2022-07-30T06:35:25.297Z,74.90
2022-07-30T06:36:27.972Z,74.80
2022-07-30T06:38:00.585Z,75.20
2022-07-30T06:39:02.512Z,75.60
2022-07-30T06:40:41.565Z,74.20
2022-07-30T06:41:53.746Z,75.40
2022-07-30T06:42:57.085Z,75.10
2022-07-30T06:44:28.675Z,74.70
2022-07-30T06:45:56.650Z,75.10
2022-07-30T06:47:07.830Z,74.90
2022-07-30T06:48:14.435Z,74.10
2022-07-30T06:49:17.536Z,74.40
2022-07-30T06:50:21.615Z,74.50
2022-07-30T06:51:25.485Z,74.00
2022-07-30T06:52:28.848Z,74.80
2022-07-30T06:53:31.199Z,75.30
2022-07-30T06:54:49.414Z,74.50
2022-07-30T06:56:12.983Z,74.60
2022-07-30T06:57:31.153Z,75.70
2022-07-30T06:58:37.220Z,76.50
2022-07-30T06:59:59.419Z,76.80
2022-07-30T07:01:11.580Z,78.10
2022-07-30T07:02:15.686Z,79.20
2022-07-30T07:03:40.190Z,79.30
2022-07-30T07:04:43.177Z,77.90
2022-07-30T07:05:47.150Z,77.80
2022-07-30T07:06:51.605Z,77.20
2022-07-30T07:08:04.852Z,78.30
2022-07-30T07:09:12.694Z,77.20
2022-07-30T07:10:35.761Z,77.00
2022-07-30T07:12:01.365Z,77.10
2022-07-30T07:13:07.282Z,77.40
2022-07-30T07:14:12.942Z,76.90
2022-07-30T07:15:15.429Z,77.40
2022-07-30T07:16:21.799Z,76.40
2022-07-30T07:17:25.927Z,76.10
2022-07-30T07:18:35.084Z,76.60
2022-07-30T07:20:01.385Z,76.20
2022-07-30T07:21:06.043Z,76.00
2022-07-30T07:22:12.870Z,75.30
2022-07-30T07:23:19.916Z,76.30
2022-07-30T07:24:25.549Z,76.10
2022-07-30T07:25:33.033Z,76.00
2022-07-30T07:26:37.091Z,75.90
2022-07-30T07:27:39.738Z,75.70
2022-07-30T07:28:43.612Z,75.90
2022-07-30T07:30:05.464Z,75.90
2022-07-30T07:32:05.367Z,76.40
2022-07-30T07:32:37.589Z,76.90
2022-07-30T07:33:42.889Z,78.00
2022-07-30T07:34:45.540Z,78.50
2022-07-30T07:35:50.464Z,79.90
2022-07-30T07:37:08.137Z,81.40
2022-07-30T07:38:11.941Z,81.70
2022-07-30T07:39:15.503Z,80.70
2022-07-30T07:40:19.903Z,79.60
2022-07-30T07:41:23.877Z,79.70
2022-07-30T07:42:26.855Z,80.30
2022-07-30T07:43:33.469Z,81.20
2022-07-30T07:44:37.358Z,81.30
2022-07-30T07:45:42.062Z,80.80
2022-07-30T07:46:44.879Z,85.60
2022-07-30T07:47:52.019Z,84.30
2022-07-30T07:49:16.929Z,84.80
2022-07-30T07:50:23.015Z,82.50
2022-07-30T07:51:46.775Z,82.70
2022-07-30T07:52:51.952Z,81.60
2022-07-30T07:54:19.931Z,82.90
2022-07-30T07:55:20.326Z,82.00
2022-07-30T07:56:23.253Z,80.90
2022-07-30T07:57:27.669Z,79.40
2022-07-30T07:58:33.215Z,78.20
2022-07-30T07:59:40.528Z,77.80
2022-07-30T08:00:55.221Z,77.70
2022-07-30T08:02:05.293Z,76.70
2022-07-30T08:03:47.082Z,76.20
2022-07-30T08:05:10.749Z,74.90
2022-07-30T08:06:25.352Z,73.30
2022-07-30T08:07:48.859Z,73.90
2022-07-30T08:09:12.543Z,72.70
2022-07-30T08:10:40.840Z,73.70
2022-07-30T08:12:11.617Z,74.30
2022-07-30T08:13:51.550Z,74.20
2022-07-30T08:15:17.090Z,73.80
2022-07-30T08:16:52.748Z,73.20
2022-07-30T08:18:19.443Z,73.70
2022-07-30T08:19:35.986Z,73.30
2022-07-30T08:20:52.947Z,73.70
2022-07-30T08:22:02.121Z,73.00
2022-07-30T08:23:12.863Z,72.30
2022-07-30T08:24:17.672Z,72.90
2022-07-30T08:25:22.535Z,72.70
2022-07-30T08:26:28.505Z,72.00
2022-07-30T08:27:31.522Z,71.20
2022-07-30T08:28:36.950Z,71.10
2022-07-30T08:29:42.218Z,70.80
2022-07-30T08:30:45.884Z,70.30
2022-07-30T08:31:50.564Z,70.00
2022-07-30T08:32:54.564Z,69.70
2022-07-30T08:33:57.773Z,69.70
2022-07-30T08:35:01.109Z,69.70
2022-07-30T08:36:09.074Z,70.30
2022-07-30T08:37:14.469Z,70.00
2022-07-30T08:38:17.519Z,70.30
2022-07-30T08:39:22.317Z,70.30
2022-07-30T08:40:27.394Z,70.30
2022-07-30T08:41:40.273Z,70.20
2022-07-30T08:42:43.509Z,70.10
2022-07-30T08:43:48.771Z,69.30
2022-07-30T08:44:53.982Z,69.50
2022-07-30T08:45:59.595Z,69.50
2022-07-30T08:47:32.408Z,69.80
2022-07-30T08:48:44.184Z,69.60
2022-07-30T08:49:49.671Z,69.60
2022-07-30T08:50:59.628Z,69.40
2022-07-30T08:52:38.622Z,69.60
2022-07-30T08:53:43.403Z,69.80
2022-07-30T08:54:48.562Z,69.60
2022-07-30T08:55:51.594Z,70.40
2022-07-30T08:56:59.278Z,69.30
2022-07-30T08:58:11.246Z,69.40
2022-07-30T08:59:17.427Z,69.40
2022-07-30T09:00:20.558Z,69.50
2022-07-30T09:01:26.162Z,69.90
2022-07-30T09:02:32.940Z,69.70
2022-07-30T09:03:44.239Z,70.30
2022-07-30T09:04:47.532Z,70.10
2022-07-30T09:05:51.399Z,70.10
2022-07-30T09:06:53.897Z,69.90
2022-07-30T09:07:57.397Z,70.00
2022-07-30T09:09:00.549Z,70.00
2022-07-30T09:10:06.608Z,69.60
2022-07-30T09:11:10.285Z,69.50
2022-07-30T09:12:38.520Z,69.00
2022-07-30T09:13:44.688Z,68.70
2022-07-30T09:15:02.260Z,68.40
2022-07-30T09:16:07.063Z,69.70
2022-07-30T09:17:12.837Z,68.50
2022-07-30T09:18:26.980Z,68.60
2022-07-30T09:19:30.204Z,68.40
2022-07-30T09:20:35.358Z,68.10
2022-07-30T09:21:42.876Z,67.90
2022-07-30T09:23:00.408Z,68.20
2022-07-30T09:24:43.972Z,68.20
2022-07-30T09:26:07.693Z,68.20
2022-07-30T09:27:47.132Z,68.20
2022-07-30T09:29:17.805Z,69.10
2022-07-30T09:30:51.669Z,68.80
2022-07-30T09:32:13.255Z,68.70
2022-07-30T09:33:38.039Z,68.80
2022-07-30T09:35:15.048Z,68.90
2022-07-30T09:36:47.908Z,68.70
2022-07-30T09:38:27.309Z,68.10
2022-07-30T09:40:13.178Z,68.30
2022-07-30T09:41:48.127Z,68.80
2022-07-30T09:43:02.304Z,67.90
2022-07-30T09:44:06.887Z,68.40
2022-07-30T09:45:16.177Z,67.60
2022-07-30T09:46:22.222Z,67.30
2022-07-30T09:47:33.326Z,68.60
2022-07-30T09:48:36.713Z,68.10
2022-07-30T09:49:41.907Z,68.60
2022-07-30T09:50:53.075Z,68.50
2022-07-30T09:51:57.863Z,67.00
2022-07-30T09:54:51.240Z,67.20
2022-07-30T09:55:59.317Z,66.90
2022-07-30T09:57:23.147Z,67.10
2022-07-30T09:58:45.586Z,67.20
2022-07-30T09:59:49.488Z,67.20
2022-07-30T10:01:00.139Z,67.90
2022-07-30T10:02:34.067Z,68.10
2022-07-30T10:03:49.541Z,68.20
2022-07-30T10:05:25.381Z,69.00
2022-07-30T10:06:37.983Z,68.80
2022-07-30T10:07:51.478Z,68.20
2022-07-30T10:08:55.751Z,68.50
2022-07-30T10:10:00.727Z,68.70
2022-07-30T10:11:09.575Z,69.20
2022-07-30T10:12:15.405Z,69.10
2022-07-30T10:13:23.354Z,69.10
2022-07-30T10:14:42.873Z,69.70
2022-07-30T10:15:51.447Z,69.70
2022-07-30T10:16:55.011Z,69.40
2022-07-30T10:18:00.589Z,68.70
2022-07-30T10:19:40.275Z,68.50
2022-07-30T10:21:05.610Z,69.40
2022-07-30T10:22:28.373Z,69.60
2022-07-30T10:24:09.687Z,69.50
2022-07-30T10:25:48.966Z,69.90
2022-07-30T10:27:36.054Z,69.80
2022-07-30T10:28:55.236Z,70.70
2022-07-30T10:29:59.810Z,71.00
2022-07-30T10:31:15.277Z,71.90
2022-07-30T10:32:30.910Z,72.00
2022-07-30T10:33:37.712Z,72.20
2022-07-30T10:34:43.765Z,72.20
2022-07-30T10:35:47.319Z,72.60
2022-07-30T10:36:57.812Z,72.90
2022-07-30T10:38:02.842Z,73.50
2022-07-30T10:39:11.000Z,72.90
2022-07-30T10:40:30.689Z,72.60
2022-07-30T10:41:48.098Z,73.60
2022-07-30T10:43:17.398Z,74.00
2022-07-30T10:45:02.563Z,74.00
2022-07-30T10:46:20.028Z,73.80
2022-07-30T10:47:34.418Z,74.10
2022-07-30T10:48:40.544Z,73.40
2022-07-30T10:50:12.633Z,73.70
2022-07-30T10:51:18.549Z,74.20
2022-07-30T10:52:44.697Z,74.00
2022-07-30T10:53:48.856Z,73.80
2022-07-30T10:54:54.445Z,74.00
2022-07-30T10:56:14.025Z,74.80
2022-07-30T10:57:31.721Z,74.80
2022-07-30T10:59:00.386Z,75.10
2022-07-30T11:00:15.293Z,75.40
2022-07-30T11:01:19.193Z,75.60
2022-07-30T11:02:26.635Z,76.10
2022-07-30T11:03:41.346Z,76.90
2022-07-30T11:04:48.765Z,77.10
2022-07-30T11:06:29.022Z,77.60
2022-07-30T11:07:31.738Z,77.80
2022-07-30T11:08:42.613Z,77.90
2022-07-30T11:09:49.717Z,78.00
2022-07-30T11:12:05.861Z,78.30
2022-07-30T11:13:07.185Z,78.20
2022-07-30T11:14:09.717Z,78.60
2022-07-30T11:15:19.301Z,78.60
2022-07-30T11:16:24.880Z,79.10
2022-07-30T11:18:13.093Z,79.00
2022-07-30T11:19:54.976Z,78.90
2022-07-30T11:21:16.229Z,79.50
2022-07-30T11:22:29.804Z,81.00
2022-07-30T11:23:40.062Z,81.20
2022-07-30T11:24:48.971Z,82.20
2022-07-30T11:25:54.726Z,81.60
2022-07-30T11:26:58.627Z,82.00
2022-07-30T11:28:01.515Z,83.20
2022-07-30T11:29:06.559Z,82.90
2022-07-30T11:30:31.964Z,82.80
2022-07-30T11:32:07.422Z,83.70
2022-07-30T11:33:32.245Z,84.40
2022-07-30T11:34:36.835Z,84.10
2022-07-30T11:35:42.263Z,85.50
2022-07-30T11:37:18.199Z,86.60
2022-07-30T11:38:26.213Z,86.80
2022-07-30T11:40:09.828Z,88.20
2022-07-30T11:41:13.065Z,88.60
2022-07-30T11:42:26.617Z,90.10
2022-07-30T11:43:35.739Z,90.40
2022-07-30T11:44:39.109Z,90.90
2022-07-30T11:45:43.239Z,91.30
2022-07-30T11:46:49.053Z,91.80
2022-07-30T11:47:55.867Z,92.50
2022-07-30T11:49:01.428Z,92.50
2022-07-30T11:50:05.297Z,92.50
2022-07-30T11:51:09.950Z,92.40
2022-07-30T11:52:14.822Z,92.00
2022-07-30T11:53:20.706Z,92.60
2022-07-30T11:54:23.717Z,92.70
2022-07-30T11:55:30.401Z,92.70
2022-07-30T11:56:34.729Z,92.70
2022-07-30T11:57:40.858Z,92.80
2022-07-30T11:58:44.915Z,92.80
2022-07-30T11:59:54.244Z,92.90
2022-07-30T12:01:01.021Z,92.80
2022-07-30T12:02:04.049Z,93.40
2022-07-30T12:03:12.382Z,93.50
2022-07-30T12:04:14.903Z,92.50
2022-07-30T12:05:25.257Z,93.30
2022-07-30T12:06:28.637Z,93.00
2022-07-30T12:07:32.575Z,93.10
2022-07-30T12:08:42.270Z,94.30
2022-07-30T12:09:44.683Z,94.80
2022-07-30T12:10:59.770Z,95.30
2022-07-30T12:12:03.583Z,95.00
2022-07-30T12:13:12.358Z,94.60
2022-07-30T12:14:15.659Z,94.00
2022-07-30T12:15:32.452Z,94.10
2022-07-30T12:16:35.916Z,94.00
2022-07-30T12:17:46.028Z,94.60
2022-07-30T12:18:49.553Z,94.80
2022-07-30T12:19:52.409Z,95.00
2022-07-30T12:20:59.525Z,95.00
2022-07-30T12:22:02.125Z,94.90
2022-07-30T12:23:12.039Z,94.80
2022-07-30T12:24:14.968Z,95.00
2022-07-30T12:25:18.557Z,95.00
2022-07-30T12:26:23.160Z,94.60
2022-07-30T12:27:26.911Z,95.60
2022-07-30T12:28:33.270Z,95.40
2022-07-30T12:29:36.319Z,96.10
2022-07-30T12:30:40.100Z,95.90
2022-07-30T12:31:45.363Z,96.20
2022-07-30T12:32:47.931Z,96.80
2022-07-30T12:33:51.884Z,96.60
2022-07-30T12:34:56.239Z,95.20
2022-07-30T12:36:01.811Z,95.90
2022-07-30T12:37:10.900Z,95.60
2022-07-30T12:38:18.062Z,95.50
2022-07-30T12:39:22.795Z,96.90
2022-07-30T12:40:26.358Z,95.30
2022-07-30T12:41:42.788Z,96.10
2022-07-30T12:42:52.994Z,95.30
2022-07-30T12:43:56.453Z,96.10
2022-07-30T12:45:00.414Z,96.40
2022-07-30T12:46:02.908Z,95.40
2022-07-30T12:47:07.765Z,94.80
2022-07-30T12:48:11.428Z,95.50
2022-07-30T12:49:21.983Z,95.40
2022-07-30T12:50:26.315Z,96.90
2022-07-30T12:51:33.666Z,96.30
2022-07-30T12:52:39.024Z,96.50
2022-07-30T12:53:44.146Z,95.90
2022-07-30T12:54:58.023Z,96.00
2022-07-30T12:56:12.682Z,94.60
2022-07-30T12:57:15.140Z,94.90
2022-07-30T12:58:18.436Z,95.00
2022-07-30T12:59:22.683Z,95.30
2022-07-30T13:00:28.749Z,95.40
2022-07-30T13:01:40.578Z,95.00
2022-07-30T13:02:43.961Z,95.80
2022-07-30T13:03:47.618Z,95.30
2022-07-30T13:05:10.276Z,95.70
2022-07-30T13:06:20.397Z,95.20
2022-07-30T13:07:22.737Z,95.40
2022-07-30T13:08:47.466Z,95.50
2022-07-30T13:10:08.136Z,95.90
2022-07-30T13:11:11.599Z,95.80
2022-07-30T13:12:15.101Z,95.60
2022-07-30T13:13:18.487Z,95.80
2022-07-30T13:14:23.668Z,95.60
2022-07-30T13:15:29.443Z,95.50
2022-07-30T13:16:34.353Z,95.50
2022-07-30T13:17:38.017Z,95.70
2022-07-30T13:18:41.932Z,95.30
2022-07-30T13:19:44.579Z,95.30
2022-07-30T13:20:49.498Z,95.50
2022-07-30T13:21:52.017Z,95.40
2022-07-30T13:23:00.178Z,95.10
2022-07-30T13:24:07.649Z,95.20
2022-07-30T13:25:11.851Z,94.90
2022-07-30T13:26:15.375Z,94.80
2022-07-30T13:27:18.263Z,94.50
2022-07-30T13:28:22.029Z,94.50
2022-07-30T13:29:26.159Z,94.30
2022-07-30T13:30:28.875Z,94.30
2022-07-30T13:31:43.248Z,94.50
2022-07-30T13:32:46.780Z,94.70
2022-07-30T13:33:49.995Z,94.80
2022-07-30T13:34:53.549Z,94.70
2022-07-30T13:35:56.070Z,94.90
2022-07-30T13:36:59.782Z,94.70
2022-07-30T13:38:02.366Z,94.80
2022-07-30T13:39:07.198Z,94.50
2022-07-30T13:40:10.965Z,95.20
2022-07-30T13:41:14.608Z,95.00
2022-07-30T13:42:17.093Z,95.00
2022-07-30T13:43:20.623Z,95.30
2022-07-30T13:44:23.157Z,95.60
2022-07-30T13:45:26.803Z,95.60
2022-07-30T13:46:30.120Z,95.70
2022-07-30T13:47:32.591Z,95.50
2022-07-30T13:48:36.965Z,95.50
2022-07-30T13:49:44.126Z,95.40
2022-07-30T13:50:48.052Z,95.30
2022-07-30T13:51:51.031Z,95.40
2022-07-30T13:52:56.864Z,95.20
2022-07-30T13:54:07.505Z,95.20
2022-07-30T13:55:10.736Z,95.10
2022-07-30T13:56:13.271Z,95.10
2022-07-30T13:57:18.203Z,95.60
2022-07-30T13:58:20.949Z,96.60
2022-07-30T13:59:24.615Z,96.30
2022-07-30T14:00:32.387Z,96.40
2022-07-30T14:01:36.174Z,96.50
2022-07-30T14:02:39.082Z,96.70
2022-07-30T14:03:47.078Z,96.90
2022-07-30T14:04:51.715Z,97.10
2022-07-30T14:05:55.299Z,97.20
2022-07-30T14:07:13.294Z,97.30
2022-07-30T14:08:16.030Z,97.50
2022-07-30T14:09:20.871Z,97.20
2022-07-30T14:10:25.106Z,97.00
2022-07-30T14:11:28.430Z,97.00
2022-07-30T14:12:30.764Z,97.50
2022-07-30T14:13:34.197Z,97.10
2022-07-30T14:14:36.506Z,97.00
2022-07-30T14:15:40.085Z,97.00
2022-07-30T14:16:46.668Z,97.00
2022-07-30T14:17:56.054Z,97.00
2022-07-30T14:19:00.306Z,97.00
2022-07-30T14:20:02.855Z,97.10
2022-07-30T14:21:06.664Z,97.10
2022-07-30T14:22:09.309Z,97.10
2022-07-30T14:23:12.587Z,97.00
2022-07-30T14:24:16.796Z,97.50
2022-07-30T14:25:21.818Z,97.70
2022-07-30T14:26:24.366Z,97.90
2022-07-30T14:27:33.494Z,98.10
2022-07-30T14:28:35.757Z,98.30
2022-07-30T14:29:39.454Z,98.30
2022-07-30T14:30:42.535Z,98.00
2022-07-30T14:31:46.077Z,97.90
2022-07-30T14:32:57.349Z,98.10
2022-07-30T14:34:03.622Z,98.40
2022-07-30T14:35:09.368Z,98.70
2022-07-30T14:36:14.085Z,98.60
2022-07-30T14:37:17.038Z,98.50
2022-07-30T14:38:20.415Z,98.10
2022-07-30T14:39:22.760Z,98.20
2022-07-30T14:40:31.100Z,97.80
2022-07-30T14:41:35.545Z,97.70
2022-07-30T14:42:40.070Z,97.60
2022-07-30T14:43:42.382Z,97.60
2022-07-30T14:44:45.867Z,97.60
2022-07-30T14:45:50.801Z,97.80
2022-07-30T14:46:54.272Z,97.70
2022-07-30T14:47:58.554Z,97.70
2022-07-30T14:49:02.210Z,97.90
2022-07-30T14:50:06.517Z,97.60
2022-07-30T14:51:16.856Z,97.40
2022-07-30T14:52:23.025Z,97.60
2022-07-30T14:53:25.259Z,97.40
2022-07-30T14:54:28.879Z,97.20
2022-07-30T14:55:32.461Z,97.30
2022-07-30T14:56:36.121Z,97.30
2022-07-30T14:57:38.834Z,97.50
2022-07-30T14:58:42.016Z,97.50
2022-07-30T14:59:44.592Z,97.80
2022-07-30T15:00:48.986Z,97.90
2022-07-30T15:01:52.860Z,97.90
2022-07-30T15:02:56.639Z,97.80
2022-07-30T15:03:59.388Z,97.50
2022-07-30T15:05:02.753Z,97.60
2022-07-30T15:06:05.158Z,97.60